createdAt,value
2019-04-03T00:00:38.327Z,11.90
2019-04-03T00:03:08.336Z,11.80
2019-04-03T00:05:38.359Z,11.80
2019-04-03T00:08:08.770Z,11.90
2019-04-03T00:10:38.777Z,12.00
2019-04-03T00:13:11.152Z,12.00
2019-04-03T00:15:40.993Z,12.10
2019-04-03T00:18:11.438Z,12.10
2019-04-03T00:20:41.757Z,12.00
2019-04-03T00:23:12.089Z,11.90
2019-04-03T00:25:42.178Z,11.90
2019-04-03T00:28:12.495Z,11.90
2019-04-03T00:30:42.510Z,11.90
2019-04-03T00:33:12.530Z,12.00
2019-04-03T00:35:42.543Z,12.00
2019-04-03T00:38:12.871Z,12.00
2019-04-03T00:40:42.887Z,12.00
2019-04-03T00:43:12.970Z,12.00
2019-04-03T00:45:43.059Z,12.00
2019-04-03T00:48:13.109Z,12.10
2019-04-03T00:50:43.190Z,12.20
2019-04-03T00:53:13.190Z,12.20
2019-04-03T00:55:43.276Z,12.10
2019-04-03T00:58:38.811Z,12.00
2019-04-03T01:01:11.350Z,12.00
2019-04-03T01:03:41.557Z,12.00
2019-04-03T01:06:11.819Z,12.00
2019-04-03T01:08:41.972Z,12.10
2019-04-03T01:11:12.047Z,12.10
2019-04-03T01:13:42.150Z,12.10
2019-04-03T01:16:12.761Z,12.10
2019-04-03T01:18:42.778Z,12.10
2019-04-03T01:21:12.986Z,11.90
2019-04-03T01:23:43.332Z,11.70
2019-04-03T01:26:13.341Z,11.60
2019-04-03T01:28:43.670Z,11.50
2019-04-03T01:31:15.037Z,11.40
2019-04-03T01:33:46.887Z,11.40
2019-04-03T01:36:17.589Z,11.40
2019-04-03T01:38:49.813Z,11.40
2019-04-03T01:41:21.492Z,11.30
2019-04-03T01:43:53.063Z,11.40
2019-04-03T01:46:23.379Z,11.30
2019-04-03T01:48:53.823Z,11.40
2019-04-03T01:51:24.026Z,11.30
2019-04-03T01:53:54.624Z,11.20
2019-04-03T01:56:24.837Z,11.20
2019-04-03T01:58:54.827Z,11.10
2019-04-03T02:01:24.925Z,11.00
2019-04-03T02:03:55.354Z,11.00
2019-04-03T02:06:25.369Z,11.00
2019-04-03T02:08:55.607Z,11.00
2019-04-03T02:11:25.577Z,11.00
2019-04-03T02:13:55.677Z,11.00
2019-04-03T02:16:25.867Z,11.00
2019-04-03T02:18:55.996Z,11.00
2019-04-03T02:21:27.725Z,11.00
2019-04-03T02:23:57.999Z,10.90
2019-04-03T02:26:28.074Z,10.90
2019-04-03T02:28:58.104Z,11.00
2019-04-03T02:31:28.543Z,11.00
2019-04-03T02:34:01.155Z,11.00
2019-04-03T04:26:31.817Z,10.90
2019-04-03T04:29:02.827Z,10.70
2019-04-03T04:31:33.321Z,10.60
2019-04-03T04:34:04.083Z,10.60
2019-04-03T04:36:34.843Z,10.60
2019-04-03T04:39:07.361Z,10.60
2019-04-03T04:41:37.871Z,10.50
2019-04-03T04:44:09.896Z,10.50
2019-04-03T04:46:43.714Z,10.50
2019-04-03T04:49:12.995Z,10.50
2019-04-03T04:51:43.531Z,10.30
2019-04-03T04:54:14.051Z,10.20
2019-04-03T04:56:44.708Z,10.00
2019-04-03T04:59:15.269Z,9.90
2019-04-03T05:01:47.033Z,9.80
2019-04-03T05:04:18.551Z,9.80
2019-04-03T05:06:49.149Z,9.80
2019-04-03T05:09:19.648Z,9.80
2019-04-03T05:11:50.544Z,9.70
2019-04-03T05:14:21.738Z,9.60
2019-04-03T05:16:54.127Z,9.60
2019-04-03T05:19:24.821Z,9.60
2019-04-03T05:21:55.603Z,9.50
2019-04-03T05:24:26.919Z,9.50
2019-04-03T05:26:58.548Z,9.50
2019-04-03T05:29:29.175Z,9.40
2019-04-03T05:31:59.994Z,9.40
2019-04-03T05:34:30.608Z,9.30
2019-04-03T05:37:01.133Z,9.30
2019-04-03T05:39:31.688Z,9.30
2019-04-03T05:42:02.419Z,9.20
2019-04-03T05:44:33.795Z,9.20
2019-04-03T05:47:07.576Z,9.10
2019-04-03T05:49:37.333Z,9.10
2019-04-03T05:52:08.296Z,9.00
2019-04-03T05:54:39.373Z,9.00
2019-04-03T05:57:11.907Z,8.90
2019-04-03T05:59:44.415Z,8.90
2019-04-03T06:02:19.858Z,8.80
2019-04-03T06:04:47.493Z,8.80
2019-04-03T06:07:18.949Z,8.70
2019-04-03T06:09:49.472Z,8.60
2019-04-03T06:12:19.959Z,8.60
2019-04-03T06:14:50.979Z,8.60
2019-04-03T06:17:22.301Z,8.60
2019-04-03T06:19:52.782Z,8.50
2019-04-03T06:22:23.273Z,8.60
2019-04-03T06:24:55.845Z,8.60
2019-04-03T06:27:27.962Z,8.60
2019-04-03T06:29:59.029Z,8.60
2019-04-03T06:32:30.172Z,8.60
2019-04-03T06:35:00.861Z,8.70
2019-04-03T06:37:31.713Z,8.70
2019-04-03T06:40:03.778Z,8.60
2019-04-03T06:42:34.428Z,8.60
2019-04-03T06:45:05.871Z,8.60
2019-04-03T06:47:36.438Z,8.70
2019-04-03T06:50:07.831Z,8.70
2019-04-03T06:52:38.347Z,8.70
2019-04-03T06:55:09.020Z,8.80
2019-04-03T06:57:40.053Z,8.80
2019-04-03T07:00:11.713Z,8.90
2019-04-03T07:02:42.543Z,8.90
2019-04-03T07:05:13.398Z,8.90
2019-04-03T07:07:43.911Z,8.90
2019-04-03T07:10:25.089Z,9.00
2019-04-03T07:12:48.116Z,9.00
2019-04-03T07:15:19.150Z,9.00
2019-04-03T07:17:50.289Z,9.10
2019-04-03T07:20:21.234Z,9.10
2019-04-03T07:22:52.322Z,9.10
2019-04-03T07:25:22.796Z,9.20
2019-04-03T07:27:53.297Z,9.20
2019-04-03T07:30:23.808Z,9.20
2019-04-03T07:32:57.009Z,9.30
2019-04-03T07:35:27.163Z,9.20
2019-04-03T07:37:57.720Z,9.30
2019-04-03T07:40:28.657Z,9.30
2019-04-03T07:42:59.659Z,9.30
2019-04-03T07:45:32.761Z,9.30
2019-04-03T07:48:05.992Z,9.30
2019-04-03T07:50:36.726Z,9.40
2019-04-03T07:53:07.393Z,9.30
2019-04-03T07:55:38.242Z,9.30
2019-04-03T07:58:08.803Z,9.30
2019-04-03T08:00:39.316Z,9.30
2019-04-03T08:03:09.948Z,9.30
2019-04-03T08:05:40.466Z,9.30
2019-04-03T08:08:11.079Z,9.40
2019-04-03T08:10:41.502Z,9.50
2019-04-03T08:13:12.070Z,9.60
2019-04-03T08:15:44.503Z,9.70
2019-04-03T08:18:15.224Z,9.80
2019-04-03T08:20:45.733Z,9.90
2019-04-03T08:23:16.481Z,9.90
2019-04-03T08:25:48.695Z,10.00
2019-04-03T08:28:19.203Z,10.10
2019-04-03T08:30:49.700Z,10.10
2019-04-03T08:33:26.166Z,10.20
2019-04-03T08:35:52.458Z,10.30
2019-04-03T08:38:23.048Z,10.30
2019-04-03T08:40:53.697Z,10.30
2019-04-03T08:43:24.473Z,10.30
2019-04-03T08:45:55.146Z,10.30
2019-04-03T08:48:25.938Z,10.30
2019-04-03T08:50:58.156Z,10.60
2019-04-03T08:53:29.257Z,10.90
2019-04-03T08:56:00.223Z,11.10
2019-04-03T08:58:30.770Z,11.10
2019-04-03T09:01:03.683Z,11.40
2019-04-03T09:03:34.260Z,11.50
2019-04-03T09:06:04.901Z,11.30
2019-04-03T09:08:35.404Z,11.30
2019-04-03T09:11:06.081Z,11.40
2019-04-03T09:13:36.900Z,11.60
2019-04-03T09:16:10.160Z,11.70
2019-04-03T09:18:40.121Z,11.60
2019-04-03T09:21:11.028Z,12.00
2019-04-03T09:23:41.755Z,12.00
2019-04-03T09:26:12.248Z,12.00
2019-04-03T09:28:42.917Z,11.80
2019-04-03T09:31:13.559Z,11.60
2019-04-03T09:33:44.003Z,11.50
2019-04-03T09:36:14.618Z,11.40
2019-04-03T09:38:45.221Z,11.50
2019-04-03T09:41:18.501Z,11.50
2019-04-03T09:43:48.323Z,11.50
2019-04-03T09:46:18.900Z,11.50
2019-04-03T09:48:49.672Z,11.60
2019-04-03T09:51:22.365Z,11.60
2019-04-03T09:53:52.549Z,11.80
2019-04-03T09:56:23.686Z,11.60
2019-04-03T09:58:56.165Z,11.60
2019-04-03T10:01:27.055Z,11.50
2019-04-03T10:03:57.866Z,11.80
2019-04-03T10:06:30.424Z,11.70
2019-04-03T10:09:01.394Z,11.80
2019-04-03T10:11:31.933Z,12.00
2019-04-03T10:14:02.399Z,12.10
2019-04-03T10:16:35.573Z,12.20
2019-04-03T10:19:05.978Z,12.20
2019-04-03T10:21:36.645Z,12.30
2019-04-03T10:24:07.383Z,12.50
2019-04-03T10:26:40.575Z,12.30
2019-04-03T10:29:10.895Z,12.10
2019-04-03T10:31:41.648Z,12.00
2019-04-03T10:34:13.699Z,12.00
2019-04-03T10:36:44.743Z,11.90
2019-04-03T10:39:15.957Z,12.00
2019-04-03T10:41:46.641Z,12.00
2019-04-03T10:44:18.253Z,12.00
2019-04-03T10:46:49.950Z,12.10
2019-04-03T10:49:20.995Z,12.20
2019-04-03T10:51:51.776Z,12.30
2019-04-03T10:54:24.442Z,12.50
2019-04-03T10:56:55.565Z,12.30
2019-04-03T10:59:26.181Z,12.40
2019-04-03T11:01:56.779Z,12.80
2019-04-03T11:04:27.365Z,12.90
2019-04-03T11:06:58.313Z,13.00
2019-04-03T11:09:28.961Z,13.00
2019-04-03T11:12:00.894Z,13.40
2019-04-03T11:14:31.921Z,13.00
2019-04-03T11:17:02.787Z,13.40
2019-04-03T11:19:34.934Z,13.40
2019-04-03T11:22:05.772Z,13.10
2019-04-03T11:24:39.780Z,13.40
2019-04-03T11:27:09.293Z,14.00
2019-04-03T11:29:41.902Z,14.10
2019-04-03T11:32:12.963Z,13.30
2019-04-03T11:34:43.558Z,13.30
2019-04-03T11:37:14.143Z,13.30
2019-04-03T11:39:46.230Z,13.20
2019-04-03T11:42:23.997Z,13.10
2019-04-03T11:44:49.354Z,13.40
2019-04-03T11:47:20.281Z,13.70
2019-04-03T11:49:52.536Z,13.80
2019-04-03T11:52:23.469Z,14.20
2019-04-03T11:54:54.009Z,14.50
2019-04-03T11:57:26.820Z,13.90
2019-04-03T11:59:57.543Z,14.00
2019-04-03T12:02:28.597Z,14.70
2019-04-03T12:04:59.158Z,15.10
2019-04-03T12:07:29.815Z,16.10
2019-04-03T12:10:02.793Z,16.50
2019-04-03T12:12:32.759Z,14.70
2019-04-03T12:15:03.584Z,14.80
2019-04-03T12:17:34.352Z,14.70
2019-04-03T12:20:06.528Z,14.30
2019-04-03T12:22:37.819Z,14.30
2019-04-03T12:25:08.754Z,14.80
2019-04-03T12:27:39.936Z,15.10
2019-04-03T12:30:11.716Z,14.40
2019-04-03T12:32:47.431Z,14.30
2019-04-03T12:35:15.071Z,13.80
2019-04-03T12:37:46.124Z,14.60
2019-04-03T12:40:17.728Z,16.10
2019-04-03T12:42:48.294Z,16.70
2019-04-03T12:45:19.729Z,16.70
2019-04-03T12:47:50.294Z,16.00
2019-04-03T12:50:20.859Z,14.70
2019-04-03T12:52:51.674Z,14.50
2019-04-03T12:55:22.958Z,14.00
2019-04-03T12:57:54.704Z,14.10
2019-04-03T13:00:26.054Z,14.40
2019-04-03T13:02:56.689Z,14.70
2019-04-03T13:05:27.516Z,15.10
2019-04-03T13:07:59.899Z,15.00
2019-04-03T13:10:41.535Z,14.20
2019-04-03T13:13:02.837Z,14.00
2019-04-03T13:15:36.195Z,13.80
2019-04-03T13:18:06.722Z,14.10
2019-04-03T13:20:38.174Z,14.90
2019-04-03T13:23:08.757Z,15.90
2019-04-03T13:25:39.949Z,16.70
2019-04-03T13:28:10.550Z,17.80
2019-04-03T13:30:43.203Z,16.90
2019-04-03T13:33:16.570Z,16.70
2019-04-03T13:35:47.161Z,17.70
2019-04-03T13:38:18.658Z,18.50
2019-04-03T13:40:49.343Z,17.90
2019-04-03T13:43:21.596Z,17.00
2019-04-03T13:45:52.302Z,16.50
2019-04-03T13:48:22.996Z,16.00
2019-04-03T13:50:54.821Z,15.60
2019-04-03T13:53:26.235Z,15.30
2019-04-03T13:55:56.778Z,15.00
2019-04-03T13:58:28.696Z,14.90
2019-04-03T14:01:02.763Z,14.80
2019-04-03T14:03:32.009Z,14.80
2019-04-03T14:06:04.410Z,14.80
2019-04-03T14:08:35.266Z,14.80
2019-04-03T14:11:06.457Z,14.70
2019-04-03T14:13:37.045Z,14.80
2019-04-03T14:16:18.626Z,14.90
2019-04-03T14:18:40.902Z,14.90
2019-04-03T14:21:12.928Z,15.10
2019-04-03T14:23:44.224Z,15.40
2019-04-03T14:26:15.254Z,15.70
2019-04-03T14:28:46.369Z,15.60
2019-04-03T14:31:18.091Z,17.00
2019-04-03T14:33:49.665Z,17.60
2019-04-03T14:36:20.434Z,17.60
2019-04-03T14:38:51.327Z,17.70
2019-04-03T14:41:22.018Z,18.50
2019-04-03T14:43:52.560Z,17.80
2019-04-03T14:46:23.213Z,17.10
2019-04-03T14:48:56.367Z,17.50
2019-04-03T14:51:27.178Z,18.10
2019-04-03T14:53:58.192Z,17.80
2019-04-03T14:56:30.410Z,19.00
2019-04-03T14:59:01.162Z,19.40
2019-04-03T15:01:32.197Z,19.80
2019-04-03T15:04:02.917Z,20.00
2019-04-03T15:06:33.469Z,19.80
2019-04-03T15:09:06.060Z,20.30
2019-04-03T15:11:37.005Z,19.60
2019-04-03T15:14:08.426Z,19.40
2019-04-03T15:16:39.160Z,19.60
2019-04-03T15:19:12.927Z,20.10
2019-04-03T15:21:42.453Z,20.30
2019-04-03T15:24:14.152Z,18.80
2019-04-03T15:26:44.968Z,17.70
2019-04-03T15:29:15.599Z,17.20
2019-04-03T15:31:46.891Z,17.10
2019-04-03T15:34:17.532Z,17.30
2019-04-03T15:36:50.562Z,16.90
2019-04-03T15:39:20.519Z,17.50
2019-04-03T15:41:51.728Z,17.20
2019-04-03T15:44:22.404Z,17.00
2019-04-03T15:46:52.943Z,17.10
2019-04-03T15:49:25.613Z,16.90
2019-04-03T15:51:56.121Z,16.50
2019-04-03T15:54:27.104Z,16.10
2019-04-03T15:56:59.327Z,15.70
2019-04-03T15:59:30.876Z,15.40
2019-04-03T16:02:01.964Z,15.30
2019-04-03T16:04:33.866Z,15.20
2019-04-03T16:07:07.618Z,15.10
2019-04-03T16:09:37.435Z,15.00
2019-04-03T16:12:08.373Z,14.90
2019-04-03T16:14:38.937Z,14.80
2019-04-03T16:17:09.741Z,14.70
2019-04-03T16:19:43.377Z,14.70
2019-04-03T16:22:13.627Z,14.60
2019-04-03T16:24:44.712Z,14.50
2019-04-03T16:27:16.108Z,14.30
2019-04-03T16:29:47.006Z,14.20
2019-04-03T16:32:17.715Z,14.20
2019-04-03T16:34:48.412Z,14.10
2019-04-03T16:37:21.474Z,14.10
2019-04-03T16:39:51.701Z,14.00
2019-04-03T16:42:22.729Z,14.00
2019-04-03T16:44:53.746Z,13.90
2019-04-03T16:47:27.513Z,13.90
2019-04-03T16:49:57.255Z,13.80
2019-04-03T16:52:30.170Z,13.70
2019-04-03T16:55:00.938Z,13.50
2019-04-03T16:57:31.578Z,13.30
2019-04-03T17:00:02.465Z,12.90
2019-04-03T17:02:33.284Z,12.50
2019-04-03T17:05:03.892Z,12.10
2019-04-03T17:07:37.004Z,11.60
2019-04-03T17:10:09.454Z,11.10
2019-04-03T17:12:39.819Z,10.70
2019-04-03T17:15:11.927Z,10.40
2019-04-03T17:17:43.125Z,10.20
2019-04-03T17:20:15.215Z,10.00
2019-04-03T17:22:46.833Z,9.50
2019-04-03T17:25:17.827Z,9.20
2019-04-03T17:27:56.134Z,8.40
2019-04-03T17:30:21.217Z,8.30
2019-04-03T17:32:51.817Z,8.20
2019-04-03T17:35:22.514Z,8.10
2019-04-03T17:37:53.711Z,8.00
2019-04-03T17:40:24.372Z,7.80
2019-04-03T17:42:54.908Z,7.50
2019-04-03T17:45:25.574Z,7.20
2019-04-03T17:47:56.132Z,7.00
2019-04-03T17:50:27.863Z,6.80
2019-04-03T17:52:59.066Z,6.60
2019-04-03T17:55:30.071Z,6.50
2019-04-03T17:58:00.628Z,6.40
2019-04-03T18:00:31.350Z,6.20
2019-04-03T18:03:02.265Z,6.20
2019-04-03T18:05:33.331Z,6.20
2019-04-03T18:08:04.459Z,6.20
2019-04-03T18:10:35.128Z,6.20
2019-04-03T18:13:05.666Z,6.10
2019-04-03T18:15:36.278Z,6.10
2019-04-03T18:18:06.850Z,5.90
2019-04-03T18:20:37.805Z,5.80
2019-04-03T18:23:10.657Z,5.70
2019-04-03T18:25:41.117Z,5.50
2019-04-03T18:28:11.625Z,5.50
2019-04-03T18:30:43.003Z,5.40
2019-04-03T18:33:16.590Z,5.30
2019-04-03T18:35:45.900Z,5.10
2019-04-03T18:38:16.944Z,5.10
2019-04-03T18:40:47.631Z,5.00
2019-04-03T18:43:18.105Z,5.00
2019-04-03T18:45:48.686Z,4.90
2019-04-03T18:48:19.504Z,4.90
2019-04-03T18:50:50.329Z,4.90
2019-04-03T18:53:20.871Z,4.90
2019-04-03T18:55:51.506Z,4.80
2019-04-03T18:58:22.353Z,4.90
2019-04-03T19:00:54.434Z,4.80
2019-04-03T19:03:24.960Z,4.70
2019-04-03T19:05:55.928Z,4.70
2019-04-03T19:08:26.478Z,4.70
2019-04-03T19:11:02.237Z,4.70
2019-04-03T19:13:29.431Z,4.70
2019-04-03T19:16:02.194Z,4.60
2019-04-03T19:18:32.434Z,4.60
2019-04-03T19:21:03.017Z,4.60
2019-04-03T19:23:33.922Z,4.60
2019-04-03T19:26:04.921Z,4.60
2019-04-03T19:28:35.815Z,4.60
2019-04-03T19:31:08.503Z,4.60
2019-04-03T19:33:39.119Z,4.60
2019-04-03T19:36:09.663Z,4.50
2019-04-03T19:38:40.231Z,4.60
2019-04-03T19:41:11.828Z,4.50
2019-04-03T19:43:44.024Z,4.50
2019-04-03T19:46:15.862Z,4.50
2019-04-03T19:48:46.823Z,4.60
2019-04-03T19:51:17.291Z,4.60
2019-04-03T19:53:58.655Z,4.60
2019-04-03T19:56:20.100Z,4.60
2019-04-03T19:58:50.944Z,4.60
2019-04-03T20:01:23.970Z,4.50
2019-04-03T20:03:54.542Z,4.60
2019-04-03T20:06:25.023Z,4.60
2019-04-03T20:08:55.583Z,4.60
2019-04-03T20:11:26.420Z,4.60
2019-04-03T20:13:56.983Z,4.60
2019-04-03T20:16:27.531Z,4.60
2019-04-03T20:18:58.723Z,4.50
2019-04-03T20:21:29.580Z,4.50
2019-04-03T20:24:00.498Z,4.50
2019-04-03T20:26:31.022Z,4.50
2019-04-03T20:29:02.426Z,4.50
2019-04-03T20:31:35.475Z,4.50
2019-04-03T20:34:06.151Z,4.40
2019-04-03T20:36:37.144Z,4.40
2019-04-03T20:39:10.119Z,4.40
2019-04-03T20:41:40.668Z,4.40
2019-04-03T20:44:11.603Z,4.40
2019-04-03T20:46:42.575Z,4.40
2019-04-03T20:49:13.489Z,4.40
2019-04-03T20:51:44.055Z,4.40
2019-04-03T20:54:15.096Z,4.40
2019-04-03T20:56:57.198Z,4.40
2019-04-03T20:59:18.563Z,4.40
2019-04-03T21:01:49.178Z,4.40
2019-04-03T21:04:20.502Z,4.40
2019-04-03T21:06:51.881Z,4.40
2019-04-03T21:09:23.005Z,4.40
2019-04-03T21:11:53.732Z,4.40
2019-04-03T21:14:24.210Z,4.40
2019-04-03T21:16:56.204Z,4.40
2019-04-03T21:19:27.322Z,4.40
2019-04-03T21:21:59.708Z,4.40
2019-04-03T21:24:30.192Z,4.40
2019-04-03T21:27:01.533Z,4.40
2019-04-03T21:29:32.024Z,4.30
2019-04-03T21:32:02.594Z,4.30
2019-04-03T21:34:33.261Z,4.30
2019-04-03T21:37:03.959Z,4.40
2019-04-03T21:39:34.817Z,4.30
2019-04-03T21:42:05.590Z,4.30
2019-04-03T21:44:36.923Z,4.30
2019-04-03T21:47:08.007Z,4.40
2019-04-03T21:49:38.755Z,4.40
2019-04-03T21:52:09.374Z,4.40
2019-04-03T21:54:40.634Z,4.40
2019-04-03T21:57:11.271Z,4.50
2019-04-03T21:59:42.612Z,4.50
2019-04-03T22:02:14.031Z,4.40
2019-04-03T22:04:46.167Z,4.30
2019-04-03T22:07:16.823Z,4.40
2019-04-03T22:09:47.800Z,4.40
2019-04-03T22:12:18.719Z,4.40
2019-04-03T22:14:49.356Z,4.40
2019-04-03T22:17:21.702Z,4.40
2019-04-03T22:19:52.164Z,4.40
2019-04-03T22:22:22.705Z,4.40
2019-04-03T22:24:53.289Z,4.40
2019-04-03T22:27:23.943Z,4.40
2019-04-03T22:29:54.608Z,4.40
2019-04-03T22:32:25.364Z,4.40
2019-04-03T22:34:56.712Z,4.40
2019-04-03T22:37:27.300Z,4.40
2019-04-03T22:39:57.838Z,4.40
2019-04-03T22:42:28.424Z,4.50
2019-04-03T22:44:59.607Z,4.40
2019-04-03T22:47:30.201Z,4.40
2019-04-03T22:50:01.179Z,4.40
2019-04-03T22:52:32.149Z,4.40
2019-04-03T22:55:02.707Z,4.40
2019-04-03T22:57:33.426Z,4.40
2019-04-03T23:00:04.101Z,4.40
2019-04-03T23:02:34.703Z,4.40
2019-04-03T23:05:05.728Z,4.30
2019-04-03T23:07:36.733Z,4.30
2019-04-03T23:10:07.724Z,4.30
2019-04-03T23:12:38.256Z,4.30
2019-04-03T23:15:09.602Z,4.30
2019-04-03T23:17:40.214Z,4.20
2019-04-03T23:20:10.878Z,4.30
2019-04-03T23:22:41.442Z,4.30
2019-04-03T23:25:12.032Z,4.30
2019-04-03T23:27:42.917Z,4.20
2019-04-03T23:30:13.736Z,4.20
2019-04-03T23:32:46.104Z,4.30
2019-04-03T23:35:20.375Z,4.30
2019-04-03T23:37:49.728Z,4.20
2019-04-03T23:40:20.774Z,4.30
2019-04-03T23:42:51.305Z,4.30
2019-04-03T23:45:23.160Z,4.30
2019-04-03T23:47:53.731Z,4.30
2019-04-03T23:50:24.484Z,4.30
2019-04-03T23:52:55.301Z,4.30
2019-04-03T23:55:25.958Z,4.30
2019-04-03T23:57:56.578Z,4.30
